createdAt,value
2019-04-01T00:01:54.178Z,86.52
2019-04-01T00:04:23.294Z,86.24
2019-04-01T00:06:52.797Z,86.30
2019-04-01T00:09:21.812Z,86.07
2019-04-01T00:11:50.933Z,86.43
2019-04-01T00:14:20.022Z,86.52
2019-04-01T00:16:49.106Z,86.26
2019-04-01T00:19:18.282Z,86.30
2019-04-01T00:21:47.678Z,86.68
2019-04-01T00:24:16.894Z,86.37
2019-04-01T00:26:46.015Z,86.47
2019-04-01T00:29:15.142Z,86.77
2019-04-01T00:31:44.227Z,86.69
2019-04-01T00:34:13.290Z,86.77
2019-04-01T00:36:42.405Z,86.55
2019-04-01T00:39:11.567Z,86.76
2019-04-01T00:41:49.821Z,86.27
2019-04-01T00:44:18.939Z,86.61
2019-04-01T00:46:48.065Z,86.51
2019-04-01T00:49:17.224Z,87.09
2019-04-01T00:51:46.429Z,86.73
2019-04-01T00:54:15.558Z,86.53
2019-04-01T00:56:44.763Z,86.45
2019-04-01T00:59:13.882Z,86.86
2019-04-01T01:01:43.343Z,86.76
2019-04-01T01:04:12.457Z,86.66
2019-04-01T01:06:41.891Z,87.01
2019-04-01T01:09:10.989Z,87.09
2019-04-01T01:11:40.139Z,86.50
2019-04-01T01:14:09.271Z,86.54
2019-04-01T01:16:38.443Z,86.78
2019-04-01T01:19:07.594Z,86.50
2019-04-01T01:21:37.831Z,86.54
2019-04-01T01:24:06.952Z,86.47
2019-04-01T01:26:36.075Z,86.41
2019-04-01T01:29:05.250Z,86.42
2019-04-01T01:31:34.370Z,87.25
2019-04-01T01:34:03.481Z,86.84
2019-04-01T01:36:32.591Z,87.15
2019-04-01T01:39:01.748Z,86.98
2019-04-01T01:41:30.756Z,86.43
2019-04-01T01:43:59.963Z,86.60
2019-04-01T01:46:29.050Z,86.39
2019-04-01T01:48:58.108Z,86.22
2019-04-01T01:51:27.205Z,86.36
2019-04-01T01:53:56.338Z,85.85
2019-04-01T01:56:25.460Z,86.20
2019-04-01T01:58:54.573Z,86.49
2019-04-01T02:01:23.698Z,86.25
2019-04-01T02:03:52.704Z,86.07
2019-04-01T02:06:21.860Z,86.30
2019-04-01T02:08:50.953Z,86.45
2019-04-01T02:11:20.103Z,86.51
2019-04-01T02:13:49.177Z,86.54
2019-04-01T02:16:18.248Z,86.31
2019-04-01T02:18:47.372Z,86.11
2019-04-01T02:21:16.869Z,85.71
2019-04-01T02:23:46.009Z,85.42
2019-04-01T02:26:15.130Z,85.49
2019-04-01T02:28:44.279Z,85.55
2019-04-01T02:31:13.687Z,85.61
2019-04-01T02:33:42.638Z,85.23
2019-04-01T02:36:11.843Z,85.34
2019-04-01T02:38:41.223Z,85.45
2019-04-01T02:41:10.850Z,85.04
2019-04-01T02:43:39.933Z,84.86
2019-04-01T02:46:09.103Z,84.65
2019-04-01T02:48:38.289Z,85.29
2019-04-01T02:51:07.443Z,85.48
2019-04-01T02:53:36.601Z,85.03
2019-04-01T02:56:05.801Z,85.54
2019-04-01T02:58:34.918Z,85.08
2019-04-01T03:01:04.060Z,85.19
2019-04-01T03:03:33.250Z,85.02
2019-04-01T03:06:06.415Z,85.15
2019-04-01T03:08:35.554Z,84.73
2019-04-01T03:11:09.833Z,85.21
2019-04-01T03:13:36.228Z,86.15
2019-04-01T03:16:05.328Z,86.53
2019-04-01T03:18:34.455Z,87.36
2019-04-01T03:21:03.565Z,87.69
2019-04-01T03:23:32.597Z,87.55
2019-04-01T03:26:01.725Z,86.92
2019-04-01T03:28:30.725Z,87.06
2019-04-01T03:31:00.195Z,86.80
2019-04-01T03:33:29.501Z,86.80
2019-04-01T03:35:58.638Z,86.78
2019-04-01T03:38:28.268Z,86.93
2019-04-01T03:40:57.540Z,86.72
2019-04-01T03:43:26.659Z,86.42
2019-04-01T03:45:55.831Z,86.87
2019-04-01T03:48:25.029Z,86.34
2019-04-01T03:50:54.166Z,86.06
2019-04-01T03:53:23.326Z,86.01
2019-04-01T03:55:52.619Z,85.96
2019-04-01T03:58:21.700Z,85.62
2019-04-01T04:00:50.852Z,85.76
2019-04-01T04:03:19.869Z,86.03
2019-04-01T04:05:48.957Z,86.12
2019-04-01T04:08:18.041Z,85.63
2019-04-01T04:10:47.250Z,85.66
2019-04-01T04:13:16.358Z,85.45
2019-04-01T04:15:45.432Z,85.45
2019-04-01T04:18:14.580Z,85.09
2019-04-01T04:20:43.676Z,84.60
2019-04-01T04:23:12.834Z,84.24
2019-04-01T04:25:41.868Z,83.97
2019-04-01T04:28:11.389Z,84.67
2019-04-01T04:30:40.599Z,84.41
2019-04-01T04:33:09.873Z,84.16
2019-04-01T04:35:38.978Z,84.50
2019-04-01T04:38:08.284Z,84.62
2019-04-01T04:40:40.670Z,84.12
2019-04-01T04:43:08.253Z,84.84
2019-04-01T04:45:37.698Z,83.55
2019-04-01T04:48:06.839Z,83.49
2019-04-01T04:50:36.017Z,83.92
2019-04-01T04:53:05.352Z,83.89
2019-04-01T04:55:35.426Z,83.87
2019-04-01T04:58:04.703Z,83.52
2019-04-01T05:00:33.907Z,83.72
2019-04-01T05:03:03.116Z,83.74
2019-04-01T05:05:32.295Z,83.96
2019-04-01T05:08:01.434Z,83.90
2019-04-01T05:10:30.549Z,83.34
2019-04-01T05:12:59.687Z,84.32
2019-04-01T05:15:28.909Z,83.62
2019-04-01T05:17:59.123Z,83.63
2019-04-01T05:20:30.427Z,83.31
2019-04-01T05:23:03.242Z,83.52
2019-04-01T05:25:33.923Z,84.01
2019-04-01T05:28:05.284Z,83.19
2019-04-01T05:30:37.407Z,83.14
2019-04-01T05:33:06.491Z,82.17
2019-04-01T05:35:36.823Z,81.14
2019-04-01T05:38:06.968Z,81.63
2019-04-01T05:40:38.482Z,81.12
2019-04-01T05:43:07.639Z,79.91
2019-04-01T05:45:36.892Z,79.82
2019-04-01T05:48:06.024Z,79.45
2019-04-01T05:50:35.134Z,79.20
2019-04-01T05:53:04.499Z,78.63
2019-04-01T05:55:34.219Z,78.83
2019-04-01T05:58:03.386Z,78.20
2019-04-01T06:00:39.912Z,77.65
2019-04-01T06:03:09.057Z,77.80
2019-04-01T06:05:38.520Z,76.48
2019-04-01T06:08:07.639Z,76.97
2019-04-01T06:10:37.024Z,77.15
2019-04-01T06:13:06.196Z,77.33
2019-04-01T06:15:35.409Z,78.71
2019-04-01T06:18:04.819Z,76.93
2019-04-01T06:20:33.917Z,77.01
2019-04-01T06:23:03.039Z,76.85
2019-04-01T06:25:32.139Z,76.80
2019-04-01T06:28:01.350Z,76.50
2019-04-01T06:30:30.733Z,76.01
2019-04-01T06:32:59.847Z,76.73
2019-04-01T06:35:28.992Z,76.07
2019-04-01T06:37:58.365Z,74.72
2019-04-01T06:40:27.508Z,75.01
2019-04-01T06:42:56.677Z,74.33
2019-04-01T06:45:27.572Z,74.00
2019-04-01T06:47:56.912Z,73.49
2019-04-01T06:50:26.439Z,73.37
2019-04-01T06:52:56.182Z,72.56
2019-04-01T06:55:25.517Z,72.96
2019-04-01T06:57:54.822Z,71.79
2019-04-01T07:00:24.012Z,72.26
2019-04-01T07:02:53.129Z,71.72
2019-04-01T07:05:22.281Z,72.21
2019-04-01T07:07:51.458Z,72.47
2019-04-01T07:10:20.919Z,72.41
2019-04-01T07:12:50.134Z,72.13
2019-04-01T07:15:19.293Z,71.45
2019-04-01T07:17:48.489Z,68.47
2019-04-01T07:20:17.671Z,70.55
2019-04-01T07:22:46.887Z,68.97
2019-04-01T07:25:15.968Z,69.72
2019-04-01T07:27:45.077Z,70.72
2019-04-01T07:30:15.170Z,69.79
2019-04-01T07:32:44.273Z,70.84
2019-04-01T07:35:13.655Z,67.83
2019-04-01T07:37:42.904Z,69.46
2019-04-01T07:40:13.912Z,68.72
2019-04-01T07:42:43.228Z,68.88
2019-04-01T07:45:12.325Z,68.52
2019-04-01T07:47:41.428Z,68.18
2019-04-01T07:50:12.480Z,67.67
2019-04-01T07:52:41.866Z,67.82
2019-04-01T07:55:11.170Z,67.99
2019-04-01T07:57:40.296Z,68.19
2019-04-01T08:00:09.786Z,67.85
2019-04-01T08:02:39.185Z,66.64
2019-04-01T08:05:08.588Z,66.99
2019-04-01T08:07:37.797Z,66.82
2019-04-01T08:10:07.691Z,66.98
2019-04-01T08:12:36.810Z,66.20
2019-04-01T08:15:06.496Z,66.70
2019-04-01T08:17:35.661Z,66.19
2019-04-01T08:20:05.281Z,66.67
2019-04-01T08:22:34.584Z,65.82
2019-04-01T08:25:04.104Z,66.73
2019-04-01T08:27:33.233Z,65.30
2019-04-01T08:30:02.416Z,64.79
2019-04-01T08:32:31.545Z,65.19
2019-04-01T08:35:00.635Z,65.55
2019-04-01T08:37:29.763Z,66.16
2019-04-01T08:39:58.967Z,64.15
2019-04-01T08:42:28.078Z,63.70
2019-04-01T08:44:57.162Z,64.96
2019-04-01T08:47:26.288Z,64.59
2019-04-01T08:49:55.374Z,63.45
2019-04-01T08:52:24.702Z,64.24
2019-04-01T08:54:54.590Z,63.51
2019-04-01T08:57:23.716Z,62.47
2019-04-01T09:00:12.080Z,62.70
2019-04-01T09:02:41.212Z,60.62
2019-04-01T09:05:10.576Z,61.36
2019-04-01T09:07:39.628Z,62.34
2019-04-01T09:10:08.837Z,59.75
2019-04-01T09:12:38.089Z,59.58
2019-04-01T09:15:07.516Z,60.56
2019-04-01T09:17:40.050Z,61.15
2019-04-01T09:20:07.934Z,60.30
2019-04-01T09:22:37.027Z,61.51
2019-04-01T09:25:06.459Z,60.72
2019-04-01T09:27:36.967Z,59.78
2019-04-01T09:30:07.701Z,60.37
2019-04-01T09:32:36.829Z,61.05
2019-04-01T09:35:06.913Z,59.52
2019-04-01T09:37:36.031Z,58.66
2019-04-01T09:40:07.150Z,58.91
2019-04-01T09:42:36.304Z,57.90
2019-04-01T09:45:06.896Z,55.81
2019-04-01T09:47:36.009Z,58.61
2019-04-01T09:50:05.540Z,57.40
2019-04-01T09:52:34.646Z,55.84
2019-04-01T09:55:06.177Z,56.89
2019-04-01T09:57:34.610Z,55.44
2019-04-01T10:00:03.965Z,55.44
2019-04-01T10:02:33.079Z,54.58
2019-04-01T10:05:02.159Z,55.47
2019-04-01T10:07:31.630Z,55.30
2019-04-01T10:10:00.723Z,55.39
2019-04-01T10:12:29.810Z,54.99
2019-04-01T10:14:58.988Z,54.80
2019-04-01T10:17:28.091Z,53.89
2019-04-01T10:20:00.633Z,53.65
2019-04-01T10:22:27.944Z,53.65
2019-04-01T10:24:57.071Z,52.56
2019-04-01T10:27:26.162Z,51.64
2019-04-01T10:29:55.681Z,52.72
2019-04-01T10:32:24.761Z,52.01
2019-04-01T10:34:53.870Z,53.00
2019-04-01T10:37:22.959Z,52.35
2019-04-01T10:39:52.065Z,53.36
2019-04-01T10:42:21.162Z,53.02
2019-04-01T10:44:50.308Z,53.02
2019-04-01T10:47:19.483Z,53.39
2019-04-01T10:49:48.605Z,52.52
2019-04-01T10:52:17.763Z,52.19
2019-04-01T10:54:47.284Z,52.94
2019-04-01T10:57:16.341Z,51.07
2019-04-01T10:59:45.592Z,51.50
2019-04-01T11:02:18.310Z,49.40
2019-04-01T11:04:45.834Z,51.59
2019-04-01T11:07:14.983Z,50.91
2019-04-01T11:09:44.462Z,51.74
2019-04-01T11:12:13.564Z,51.39
2019-04-01T11:14:42.744Z,50.86
2019-04-01T11:17:11.854Z,50.86
2019-04-01T11:19:40.878Z,50.76
2019-04-01T11:22:09.969Z,50.65
2019-04-01T11:24:39.004Z,49.78
2019-04-01T11:27:08.170Z,49.77
2019-04-01T11:29:37.278Z,50.03
2019-04-01T11:32:07.527Z,49.46
2019-04-01T11:34:36.886Z,49.89
2019-04-01T11:37:06.026Z,49.46
2019-04-01T11:39:36.172Z,49.77
2019-04-01T11:42:05.583Z,49.24
2019-04-01T11:44:34.721Z,48.09
2019-04-01T11:47:03.877Z,49.05
2019-04-01T11:49:32.975Z,49.65
2019-04-01T11:52:02.132Z,48.43
2019-04-01T11:54:31.574Z,49.08
2019-04-01T11:57:00.716Z,48.68
2019-04-01T11:59:29.846Z,48.47
2019-04-01T12:01:58.943Z,48.41
2019-04-01T12:04:28.083Z,48.35
2019-04-01T12:06:57.187Z,47.41
2019-04-01T12:09:27.829Z,47.30
2019-04-01T12:11:57.014Z,47.87
2019-04-01T12:14:26.693Z,46.75
2019-04-01T12:16:55.780Z,47.12
2019-04-01T12:19:24.897Z,47.09
2019-04-01T12:21:54.026Z,48.32
2019-04-01T12:24:23.135Z,45.52
2019-04-01T12:26:52.211Z,44.63
2019-04-01T12:29:21.389Z,45.41
2019-04-01T12:31:51.626Z,44.85
2019-04-01T12:34:20.992Z,44.83
2019-04-01T12:36:50.109Z,46.44
2019-04-01T12:39:19.226Z,44.39
2019-04-01T12:41:48.342Z,44.18
2019-04-01T12:44:17.825Z,44.17
2019-04-01T12:46:47.032Z,44.35
2019-04-01T12:49:16.068Z,45.17
2019-04-01T12:51:45.169Z,45.38
2019-04-01T12:54:15.289Z,44.17
2019-04-01T12:56:44.519Z,44.42
2019-04-01T12:59:13.606Z,44.35
2019-04-01T13:01:42.715Z,44.77
2019-04-01T13:04:11.810Z,42.61
2019-04-01T13:06:40.929Z,41.26
2019-04-01T13:09:10.021Z,43.13
2019-04-01T13:11:39.166Z,43.90
2019-04-01T13:14:08.349Z,44.71
2019-04-01T13:16:37.438Z,43.79
2019-04-01T13:19:06.639Z,44.22
2019-04-01T13:21:35.917Z,44.51
2019-04-01T13:24:05.396Z,44.17
2019-04-01T13:26:34.564Z,44.63
2019-04-01T13:29:03.661Z,45.62
2019-04-01T13:31:33.027Z,44.50
2019-04-01T13:34:02.338Z,43.78
2019-04-01T13:36:31.620Z,44.28
2019-04-01T13:39:03.946Z,45.01
2019-04-01T13:41:42.264Z,44.97
2019-04-01T13:44:02.627Z,44.59
2019-04-01T13:46:31.770Z,43.53
2019-04-01T13:49:04.147Z,44.35
2019-04-01T13:51:31.825Z,44.18
2019-04-01T13:54:08.669Z,43.61
2019-04-01T13:56:32.099Z,43.10
2019-04-01T13:59:01.291Z,43.76
2019-04-01T14:01:30.629Z,42.99
2019-04-01T14:03:59.712Z,41.94
2019-04-01T14:06:28.884Z,42.65
2019-04-01T14:09:00.417Z,43.45
2019-04-01T14:11:29.206Z,42.95
2019-04-01T14:13:58.410Z,41.90
2019-04-01T14:16:27.767Z,41.63
2019-04-01T14:18:56.875Z,42.70
2019-04-01T14:21:26.122Z,42.50
2019-04-01T14:23:55.299Z,42.50
2019-04-01T14:26:24.508Z,41.47
2019-04-01T14:28:53.605Z,40.63
2019-04-01T14:31:23.699Z,41.16
2019-04-01T14:33:52.865Z,40.41
2019-04-01T14:36:21.976Z,40.68
2019-04-01T14:38:51.197Z,41.65
2019-04-01T14:41:20.394Z,41.58
2019-04-01T14:43:49.574Z,41.11
2019-04-01T14:46:18.796Z,39.99
2019-04-01T14:48:47.954Z,40.49
2019-04-01T14:51:17.186Z,41.67
2019-04-01T14:53:47.382Z,40.63
2019-04-01T14:56:16.567Z,40.41
2019-04-01T14:58:45.669Z,41.32
2019-04-01T15:01:14.798Z,41.15
2019-04-01T15:03:44.566Z,40.88
2019-04-01T15:06:13.789Z,41.41
2019-04-01T15:08:42.967Z,40.76
2019-04-01T15:11:12.382Z,40.80
2019-04-01T15:13:41.903Z,41.27
2019-04-01T15:16:11.160Z,41.54
2019-04-01T15:18:41.523Z,41.37
2019-04-01T15:21:11.846Z,40.35
2019-04-01T15:23:41.057Z,41.35
2019-04-01T15:26:10.212Z,41.26
2019-04-01T15:28:39.364Z,41.90
2019-04-01T15:31:08.478Z,41.21
2019-04-01T15:33:37.556Z,40.09
2019-04-01T15:36:06.803Z,42.45
2019-04-01T15:38:35.924Z,42.19
2019-04-01T15:41:05.028Z,41.97
2019-04-01T15:43:34.131Z,40.93
2019-04-01T15:46:04.161Z,42.30
2019-04-01T15:48:33.640Z,42.46
2019-04-01T15:51:02.725Z,42.23
2019-04-01T15:53:31.875Z,42.21
2019-04-01T15:56:01.063Z,42.81
2019-04-01T15:58:30.198Z,42.65
2019-04-01T16:01:00.280Z,43.01
2019-04-01T16:03:30.129Z,44.25
2019-04-01T16:05:59.510Z,43.00
2019-04-01T16:08:28.461Z,44.10
2019-04-01T16:10:57.557Z,44.14
2019-04-01T16:13:26.662Z,44.46
2019-04-01T16:15:55.675Z,44.63
2019-04-01T16:18:24.783Z,45.17
2019-04-01T16:20:55.144Z,44.99
2019-04-01T16:23:24.693Z,46.28
2019-04-01T16:25:53.836Z,46.42
2019-04-01T16:28:22.947Z,46.36
2019-04-01T16:30:52.088Z,45.59
2019-04-01T16:33:21.339Z,45.59
2019-04-01T16:35:50.449Z,46.56
2019-04-01T16:38:19.605Z,46.43
2019-04-01T16:40:48.705Z,46.45
2019-04-01T16:43:17.927Z,47.33
2019-04-01T16:45:46.995Z,47.18
2019-04-01T16:48:16.229Z,47.19
2019-04-01T16:50:45.235Z,47.39
2019-04-01T16:53:14.357Z,46.96
2019-04-01T16:55:43.762Z,47.70
2019-04-01T16:58:13.060Z,48.51
2019-04-01T17:00:42.293Z,48.08
2019-04-01T17:03:13.544Z,47.91
2019-04-01T17:05:42.323Z,49.00
2019-04-01T17:08:11.582Z,48.54
2019-04-01T17:10:42.143Z,48.91
2019-04-01T17:13:12.193Z,49.47
2019-04-01T17:15:42.180Z,48.83
2019-04-01T17:18:11.395Z,49.84
2019-04-01T17:20:40.588Z,50.45
2019-04-01T17:23:09.660Z,50.37
2019-04-01T17:25:38.745Z,49.74
2019-04-01T17:28:07.860Z,50.47
2019-04-01T17:30:36.974Z,50.29
2019-04-01T17:33:08.396Z,49.66
2019-04-01T17:35:37.177Z,50.45
2019-04-01T17:38:07.280Z,50.67
2019-04-01T17:40:36.834Z,50.45
2019-04-01T17:43:06.153Z,51.45
2019-04-01T17:45:38.274Z,51.45
2019-04-01T17:48:08.221Z,51.53
2019-04-01T17:50:37.774Z,51.80
2019-04-01T17:53:09.554Z,51.97
2019-04-01T17:55:38.703Z,51.59
2019-04-01T17:58:08.073Z,51.96
2019-04-01T18:00:41.904Z,52.35
2019-04-01T18:03:12.946Z,52.84
2019-04-01T18:05:42.167Z,52.99
2019-04-01T18:08:11.287Z,53.62
2019-04-01T18:11:15.797Z,53.62
2019-04-01T18:13:43.740Z,53.08
2019-04-01T18:16:14.966Z,54.30
2019-04-01T18:18:52.698Z,54.55
2019-04-01T18:22:10.678Z,54.57
2019-04-01T18:24:59.931Z,54.57
2019-04-01T18:27:37.723Z,54.77
2019-04-01T18:30:29.593Z,54.09
2019-04-01T18:32:59.191Z,54.09
2019-04-01T18:35:29.786Z,55.18
2019-04-01T18:38:29.167Z,54.50
2019-04-01T18:40:58.617Z,54.76
2019-04-01T18:43:28.227Z,54.76
2019-04-01T18:45:57.750Z,55.32
2019-04-01T18:48:27.078Z,54.12
2019-04-01T18:50:56.133Z,53.45
2019-04-01T18:53:33.494Z,53.94
2019-04-01T18:56:13.230Z,53.81
2019-04-01T18:58:42.969Z,55.00
2019-04-01T19:01:17.674Z,55.19
2019-04-01T19:03:46.746Z,55.69
2019-04-01T19:06:18.971Z,56.36
2019-04-01T19:08:50.508Z,55.36
2019-04-01T19:11:22.884Z,55.17
2019-04-01T19:13:52.361Z,54.61
2019-04-01T19:16:23.093Z,54.36
2019-04-01T19:18:54.751Z,54.36
2019-04-01T19:21:23.871Z,56.37
2019-04-01T19:23:52.874Z,55.53
2019-04-01T19:26:22.153Z,55.93
2019-04-01T19:28:51.272Z,56.36
2019-04-01T19:31:21.436Z,57.14
2019-04-01T19:33:53.378Z,55.83
2019-04-01T19:36:22.597Z,56.05
2019-04-01T19:39:12.486Z,56.33
2019-04-01T19:41:45.644Z,56.62
2019-04-01T19:44:14.934Z,56.50
2019-04-01T19:50:38.512Z,56.35
2019-04-01T19:53:53.267Z,55.96
2019-04-01T19:56:44.424Z,56.75
2019-04-01T19:59:17.078Z,55.56
2019-04-01T20:01:46.198Z,56.79
2019-04-01T20:04:17.030Z,57.82
2019-04-01T20:06:47.305Z,57.68
2019-04-01T20:09:18.165Z,56.83
2019-04-01T20:11:49.349Z,56.87
2019-04-01T20:14:18.535Z,56.98
2019-04-01T20:17:21.560Z,58.00
2019-04-01T20:19:56.193Z,56.62
2019-04-01T20:22:37.089Z,56.06
2019-04-01T20:25:51.664Z,56.17
2019-04-01T20:28:17.947Z,56.74
2019-04-01T20:31:37.208Z,57.44
2019-04-01T20:34:32.406Z,55.74
2019-04-01T20:37:01.469Z,56.64
2019-04-01T20:39:31.502Z,58.10
2019-04-01T20:42:26.472Z,57.88
2019-04-01T20:44:55.976Z,56.58
2019-04-01T20:47:25.319Z,56.88
2019-04-01T20:49:54.802Z,58.31
2019-04-01T20:53:19.162Z,58.88
2019-04-01T20:59:51.946Z,59.13
2019-04-01T21:02:24.843Z,58.93
2019-04-01T21:08:34.692Z,62.39
2019-04-01T21:11:05.101Z,64.32
2019-04-01T21:13:36.922Z,64.44
2019-04-01T21:16:25.548Z,64.78
2019-04-01T21:18:54.695Z,64.97
2019-04-01T21:21:23.790Z,64.43
2019-04-01T21:23:52.932Z,64.46
2019-04-01T21:26:22.058Z,64.86
2019-04-01T21:28:51.217Z,65.60
2019-04-01T21:31:20.304Z,65.81
2019-04-01T21:33:49.434Z,65.15
2019-04-01T21:36:18.641Z,65.72
2019-04-01T21:38:47.813Z,64.70
2019-04-01T21:41:16.909Z,64.92
2019-04-01T21:43:46.040Z,66.08
2019-04-01T21:46:15.190Z,65.86
2019-04-01T21:48:44.379Z,67.03
2019-04-01T21:51:13.488Z,67.53
2019-04-01T21:53:42.757Z,68.07
2019-04-01T21:56:12.081Z,68.30
2019-04-01T21:58:41.184Z,69.05
2019-04-01T22:01:10.679Z,69.23
2019-04-01T22:03:39.833Z,69.70
2019-04-01T22:06:08.957Z,70.10
2019-04-01T22:08:38.602Z,70.51
2019-04-01T22:11:07.667Z,70.75
2019-04-01T22:13:36.785Z,71.02
2019-04-01T22:16:05.881Z,71.35
2019-04-01T22:18:35.039Z,71.83
2019-04-01T22:21:04.129Z,71.25
2019-04-01T22:23:34.188Z,71.13
2019-04-01T22:26:04.110Z,71.87
2019-04-01T22:28:33.235Z,71.22
2019-04-01T22:31:02.546Z,70.14
2019-04-01T22:33:31.673Z,71.95
2019-04-01T22:36:00.759Z,72.55
2019-04-01T22:38:30.161Z,71.54
2019-04-01T22:41:00.253Z,70.61
2019-04-01T22:43:29.487Z,70.38
2019-04-01T22:45:58.611Z,72.19
2019-04-01T22:48:27.752Z,73.67
2019-04-01T22:50:57.790Z,73.62
2019-04-01T22:53:26.965Z,73.81
2019-04-01T22:55:56.347Z,73.76
2019-04-01T22:58:26.371Z,73.99
2019-04-01T23:00:55.500Z,74.05
2019-04-01T23:03:24.620Z,73.74
2019-04-01T23:05:55.682Z,74.13
2019-04-01T23:08:24.692Z,74.74
2019-04-01T23:10:53.731Z,74.71
2019-04-01T23:13:22.825Z,74.06
2019-04-01T23:15:51.943Z,74.51
2019-04-01T23:18:21.077Z,75.63
2019-04-01T23:20:50.221Z,75.57
2019-04-01T23:23:19.324Z,76.05
2019-04-01T23:25:48.477Z,76.33
2019-04-01T23:28:17.565Z,76.46
2019-04-01T23:30:46.699Z,77.04
2019-04-01T23:33:16.331Z,77.14
2019-04-01T23:35:45.880Z,77.15
2019-04-01T23:38:15.028Z,77.24
2019-04-01T23:40:44.110Z,77.42
2019-04-01T23:43:13.213Z,77.17
2019-04-01T23:45:42.317Z,77.03
2019-04-01T23:48:11.415Z,77.43
2019-04-01T23:50:40.534Z,77.94
2019-04-01T23:53:09.624Z,77.69
2019-04-01T23:55:38.683Z,78.26
2019-04-01T23:58:07.703Z,78.57
